Altoona, Pennsylvania
Current Conditions -  °F | °C
As of 2:53 PM on Monday 22 Dec 2014 (Local Time) from KAOO Reporting Station
Overcast Overcast  
Wind Chill: 32°   Ceiling: 2300
Heat Index: 32°   Visibility: 8mi
Dew Point: 24°   Wind: 3mph
Humidity: 73%   Direction: 60°ENE
Pressure: 30.11"   Gusts: NA
Location:  40.51°N, 78.4°W
Report Text: KAOO 221953Z AUTO 06003KT 8SM OVC023 00/M04 A3011 RMK AO2 SLP214 T00001044
Loading
Personal Weather Stations






























Interactive Weather Map New forecast layout! Learn more

10-Day Weather Forecast

Advertisements
Track Severe Weather on mobile